Time;durP1;ratioP1;P1;durP2;ratioP2;P2;SDS_P1;SDS_P2;PMS_P1;PMS_P2;Temp;Humidity;BMP_temperature;BMP_pressure;BME280_temperature;BME280_humidity;BME280_pressure;Samples;Min_cycle;Max_cycle;Signal;HPM_P1;HPM_P2
2021/06/08 00:01:51;;;;;;;3.00;1.93;;;;;;;16.53;78.22;101575.38;5054332;28;20850;-74
2021/06/08 00:04:18;;;;;;;2.73;2.30;;;;;;;16.50;78.79;101576.00;5054112;28;20462;-73
2021/06/08 00:06:44;;;;;;;2.07;1.87;;;;;;;16.55;78.36;101580.53;5054532;28;20450;-73
2021/06/08 00:09:10;;;;;;;2.37;2.07;;;;;;;16.54;78.51;101584.38;5054451;28;20493;-73
2021/06/08 00:11:36;;;;;;;3.23;2.23;;;;;;;16.48;78.88;101582.94;5054401;28;20443;-73
2021/06/08 00:14:02;;;;;;;2.50;1.90;;;;;;;16.39;78.75;101585.63;5054035;28;20470;-73
2021/06/08 00:16:28;;;;;;;4.63;2.50;;;;;;;16.37;78.87;101588.66;5054028;28;20450;-73
2021/06/08 00:18:54;;;;;;;2.43;1.87;;;;;;;16.40;79.07;101587.22;5053964;28;20438;-73
2021/06/08 00:21:21;;;;;;;3.80;2.30;;;;;;;16.27;80.18;101588.94;5054161;28;20472;-73
2021/06/08 00:23:47;;;;;;;3.90;3.10;;;;;;;16.34;79.45;101588.50;5053948;28;20492;-74
2021/06/08 00:26:13;;;;;;;2.50;1.97;;;;;;;16.27;80.14;101582.66;5053748;28;20450;-74
2021/06/08 00:28:39;;;;;;;3.03;2.73;;;;;;;16.25;80.30;101579.47;5054000;28;20485;-73
2021/06/08 00:31:05;;;;;;;2.90;2.10;;;;;;;16.23;80.43;101582.50;5054023;28;20442;-73
2021/06/08 00:33:31;;;;;;;1.90;1.60;;;;;;;16.14;81.10;101587.09;5053605;28;20462;-73
2021/06/08 00:35:57;;;;;;;2.60;2.07;;;;;;;16.15;80.85;101584.06;5053931;28;20446;-74
2021/06/08 00:38:25;;;;;;;3.37;2.90;;;;;;;16.17;81.06;101580.22;5053582;28;20445;-73
2021/06/08 00:40:50;;;;;;;2.83;2.03;;;;;;;16.13;80.95;101582.78;5053906;28;20449;-72
2021/06/08 00:43:16;;;;;;;4.00;2.30;;;;;;;16.14;80.67;101584.38;5054585;28;20462;-72
2021/06/08 00:45:42;;;;;;;3.73;3.17;;;;;;;16.08;81.41;101582.91;5059122;28;20500;-72
2021/06/08 00:48:09;;;;;;;2.40;2.20;;;;;;;16.01;82.03;101582.53;5053671;28;20489;-71
2021/06/08 00:50:35;;;;;;;2.30;1.60;;;;;;;16.05;81.47;101586.25;5053741;28;20481;-72
2021/06/08 00:53:01;;;;;;;2.87;2.57;;;;;;;16.02;81.37;101584.16;5053419;28;20453;-71
2021/06/08 00:55:29;;;;;;;3.40;2.93;;;;;;;16.01;80.69;101585.28;5053590;28;20442;-71
2021/06/08 00:57:55;;;;;;;2.37;1.87;;;;;;;15.96;81.12;101588.13;5053544;28;20469;-71
2021/06/08 01:00:21;;;;;;;2.87;2.17;;;;;;;15.89;81.35;101585.84;5053255;28;20946;-71
2021/06/08 01:02:47;;;;;;;9.80;2.10;;;;;;;15.79;81.74;101589.63;5053581;28;20438;-71
2021/06/08 01:05:13;;;;;;;2.93;2.30;;;;;;;15.80;81.94;101585.78;5053405;28;20508;-71
2021/06/08 01:07:40;;;;;;;3.23;2.57;;;;;;;15.82;81.71;101580.81;5053474;28;20500;-70
2021/06/08 01:10:08;;;;;;;2.50;2.17;;;;;;;15.83;81.57;101579.69;5053390;28;20484;-70
2021/06/08 01:12:36;;;;;;;4.20;2.67;;;;;;;15.85;81.82;101588.41;5053384;28;20449;-70
2021/06/08 01:15:04;;;;;;;4.57;2.37;;;;;;;15.76;81.94;101582.09;5052932;28;20481;-71
2021/06/08 01:17:29;;;;;;;3.80;2.50;;;;;;;15.68;82.55;101582.03;5053294;28;20487;-70
2021/06/08 01:19:56;;;;;;;3.23;2.53;;;;;;;15.59;83.05;101579.19;5053228;28;20438;-70
2021/06/08 01:22:25;;;;;;;5.77;2.80;;;;;;;15.58;82.88;101581.13;5053229;28;20453;-70
2021/06/08 01:24:52;;;;;;;3.73;2.13;;;;;;;15.54;83.01;101579.31;5053148;28;20512;-70
2021/06/08 01:27:19;;;;;;;2.27;1.83;;;;;;;15.54;83.08;101576.59;5052877;28;20824;-71
2021/06/08 01:29:45;;;;;;;3.00;2.23;;;;;;;15.47;83.13;101574.28;5052845;28;20482;-71
2021/06/08 01:32:12;;;;;;;3.40;2.40;;;;;;;15.49;83.18;101579.41;5053128;28;20449;-71
2021/06/08 01:34:39;;;;;;;3.97;2.47;;;;;;;15.48;84.21;101578.63;5053031;28;20494;-71
2021/06/08 01:37:06;;;;;;;4.20;2.73;;;;;;;15.51;83.68;101575.28;5053004;28;20447;-71
2021/06/08 01:39:33;;;;;;;2.87;2.13;;;;;;;15.43;84.24;101564.28;5054106;28;20438;-71
2021/06/08 01:42:00;;;;;;;4.60;2.70;;;;;;;15.45;84.37;101568.34;5058597;28;20927;-72
2021/06/08 01:44:26;;;;;;;6.63;2.70;;;;;;;15.39;84.42;101564.09;5052951;28;20454;-71
2021/06/08 01:46:52;;;;;;;3.73;2.80;;;;;;;15.40;84.38;101571.16;5052961;28;20442;-71
2021/06/08 01:49:18;;;;;;;2.40;2.17;;;;;;;15.48;84.11;101566.91;5052895;28;20575;-71
2021/06/08 01:51:53;;;;;;;5.23;2.70;;;;;;;15.40;84.75;101560.25;5055078;28;20446;-72
2021/06/08 01:54:30;;;;;;;5.07;2.57;;;;;;;15.46;84.78;101566.41;5056904;28;20465;-71
2021/06/08 01:57:03;;;;;;;2.93;2.33;;;;;;;15.51;84.01;101560.81;5056934;28;20484;-71
2021/06/08 01:59:35;;;;;;;2.80;2.00;;;;;;;15.56;82.97;101553.31;5056923;28;20423;-72
2021/06/08 02:02:08;;;;;;;2.63;2.43;;;;;;;15.50;83.53;101560.03;5056909;28;20426;-71
2021/06/08 02:04:41;;;;;;;3.00;2.27;;;;;;;15.36;84.57;101557.34;5056758;28;20496;-71
2021/06/08 02:07:14;;;;;;;4.47;2.40;;;;;;;15.43;83.87;101559.63;5056873;28;20427;-71
2021/06/08 02:09:47;;;;;;;2.50;2.27;;;;;;;15.39;84.40;101564.91;5056694;28;20493;-72
2021/06/08 02:12:17;;;;;;;3.83;2.93;;;;;;;15.47;84.38;101557.91;5056717;28;20427;-72
2021/06/08 02:14:49;;;;;;;3.30;2.40;;;;;;;15.54;83.68;101557.47;5056199;28;20482;-72
2021/06/08 02:17:21;;;;;;;2.63;2.40;;;;;;;15.56;83.67;101566.97;5056584;28;20434;-72
2021/06/08 02:19:51;;;;;;;5.97;2.87;;;;;;;15.55;84.27;101570.81;5056572;28;20427;-72
2021/06/08 02:22:22;;;;;;;4.40;3.33;;;;;;;15.52;84.89;101573.34;5056485;28;20446;-72
2021/06/08 02:24:49;;;;;;;3.10;2.60;;;;;;;15.67;83.99;101566.72;5056353;28;20458;-72
2021/06/08 02:27:18;;;;;;;2.87;2.40;;;;;;;15.69;83.82;101562.59;5056043;28;20966;-69
2021/06/08 02:29:47;;;;;;;4.87;3.43;;;;;;;15.72;84.14;101567.44;5055938;28;21003;-69
2021/06/08 02:32:15;;;;;;;3.40;3.03;;;;;;;15.72;84.30;101567.44;5056281;28;20442;-71
2021/06/08 02:34:43;;;;;;;4.40;2.83;;;;;;;15.76;84.02;101567.59;5056118;28;20469;-71
2021/06/08 02:37:10;;;;;;;3.43;2.50;;;;;;;15.86;83.55;101561.88;5056176;28;20442;-72
2021/06/08 02:39:37;;;;;;;3.37;2.47;;;;;;;15.85;83.92;101566.56;5056146;28;20466;-72
2021/06/08 02:42:04;;;;;;;4.33;3.13;;;;;;;15.91;83.57;101564.50;5056088;28;20453;-72
2021/06/08 02:44:32;;;;;;;5.10;3.40;;;;;;;15.98;83.26;101562.13;5055644;28;21036;-72
2021/06/08 02:46:59;;;;;;;3.50;2.67;;;;;;;16.03;81.21;101563.91;5055748;28;20943;-72
2021/06/08 02:49:25;;;;;;;4.03;2.87;;;;;;;16.01;79.82;101558.75;5055548;28;20852;-71
2021/06/08 02:51:52;;;;;;;4.77;2.83;;;;;;;15.98;79.11;101564.03;5055870;28;20439;-72
2021/06/08 02:54:20;;;;;;;3.40;2.47;;;;;;;15.89;79.54;101567.53;5055649;28;20466;-72
2021/06/08 02:56:47;;;;;;;3.43;2.57;;;;;;;15.96;79.09;101569.00;5055819;28;20446;-71
2021/06/08 02:59:14;;;;;;;3.13;2.80;;;;;;;15.93;81.82;101572.34;5055463;28;20445;-72
2021/06/08 03:01:50;;;;;;;3.60;2.77;;;;;;;16.01;82.18;101574.34;5055543;28;20469;-72
2021/06/08 03:04:19;;;;;;;3.57;2.27;;;;;;;15.95;83.43;101570.94;5055646;28;20468;-72
2021/06/08 03:06:52;;;;;;;6.43;3.40;;;;;;;16.04;83.50;101571.00;5055674;28;20824;-72
2021/06/08 03:09:24;;;;;;;2.77;2.10;;;;;;;16.05;83.71;101578.88;5055240;28;20987;-72
2021/06/08 03:11:51;;;;;;;5.43;3.00;;;;;;;16.13;83.39;101583.56;5055568;28;20458;-72
2021/06/08 03:14:20;;;;;;;4.60;2.70;;;;;;;16.23;83.29;101587.16;5055180;28;20527;-72
2021/06/08 03:16:52;;;;;;;3.73;2.80;;;;;;;16.25;83.46;101590.41;5055453;28;20450;-72
2021/06/08 03:19:22;;;;;;;3.30;2.93;;;;;;;16.28;84.16;101579.63;5055490;28;20851;-72
2021/06/08 03:21:50;;;;;;;3.90;2.60;;;;;;;16.37;83.86;101587.84;5055704;28;20799;-71
2021/06/08 03:24:19;;;;;;;3.40;2.57;;;;;;;16.35;83.79;101590.91;5055283;28;20466;-71
2021/06/08 03:26:47;;;;;;;4.83;3.00;;;;;;;16.38;80.34;101592.22;5055259;28;20453;-71
2021/06/08 03:29:15;;;;;;;3.77;2.97;;;;;;;16.32;79.64;101597.00;5054858;28;20478;-72
2021/06/08 03:31:45;;;;;;;3.73;3.10;;;;;;;16.28;79.56;101590.56;5055191;28;20434;-71
2021/06/08 03:34:15;;;;;;;9.20;3.73;;;;;;;16.32;79.60;101593.47;5054851;28;20474;-72
2021/06/08 03:36:43;;;;;;;5.17;2.60;;;;;;;16.37;81.08;101590.59;5061717;28;20426;-73
2021/06/08 03:39:10;;;;;;;4.00;2.80;;;;;;;16.39;82.56;101594.63;5055150;28;20533;-72
2021/06/08 03:41:37;;;;;;;4.40;3.90;;;;;;;16.38;83.09;101594.97;5066336;28;20453;-72
2021/06/08 03:44:04;;;;;;;4.57;3.30;;;;;;;16.47;83.17;101592.22;5074897;28;20468;-72
2021/06/08 03:46:30;;;;;;;3.90;3.43;;;;;;;16.49;84.11;101590.81;5074876;28;20445;-71
2021/06/08 03:48:57;;;;;;;6.23;3.20;;;;;;;16.63;83.49;101590.69;5074749;28;20484;-70
2021/06/08 03:51:27;;;;;;;3.60;2.70;;;;;;;16.71;84.02;101587.19;5074724;28;20441;-71
2021/06/08 03:53:53;;;;;;;4.67;2.60;;;;;;;16.70;83.67;101585.56;5074595;28;20458;-71
2021/06/08 03:56:19;;;;;;;5.07;3.33;;;;;;;16.70;84.07;101584.78;5074708;28;20441;-72
2021/06/08 03:58:46;;;;;;;3.63;2.60;;;;;;;16.79;83.84;101600.13;5074596;28;20437;-72
2021/06/08 04:01:12;;;;;;;5.23;3.40;;;;;;;16.84;83.33;101597.22;5074654;28;20445;-72
2021/06/08 04:03:39;;;;;;;4.77;3.50;;;;;;;16.87;83.09;101601.25;5074472;28;20469;-71
2021/06/08 04:06:05;;;;;;;4.00;2.87;;;;;;;16.81;82.77;101605.25;5074480;28;20441;-72
2021/06/08 04:08:33;;;;;;;4.30;3.07;;;;;;;16.82;81.79;101607.69;5074338;28;20484;-71
2021/06/08 04:10:59;;;;;;;4.63;3.50;;;;;;;16.80;81.44;101609.94;5074387;28;20790;-71
2021/06/08 04:13:25;;;;;;;3.63;3.07;;;;;;;16.86;81.97;101610.56;5073526;28;20469;-71
2021/06/08 04:15:51;;;;;;;4.37;3.33;;;;;;;16.92;81.44;101609.31;5074340;28;20968;-71
2021/06/08 04:18:20;;;;;;;5.30;3.40;;;;;;;16.95;81.44;101605.94;5073920;28;20931;-71
2021/06/08 04:20:46;;;;;;;4.03;3.40;;;;;;;16.97;80.90;101611.91;5074231;28;20445;-71
2021/06/08 04:23:12;;;;;;;6.10;4.10;;;;;;;16.94;81.10;101611.72;5074056;28;20453;-71
2021/06/08 04:25:40;;;;;;;3.43;2.40;;;;;;;16.96;81.24;101610.31;5073761;28;20570;-71
2021/06/08 04:28:06;;;;;;;4.00;3.20;;;;;;;17.01;80.73;101615.63;5074095;28;20437;-71
2021/06/08 04:30:32;;;;;;;5.20;3.70;;;;;;;16.97;80.78;101616.56;5073876;28;20481;-71
2021/06/08 04:32:58;;;;;;;5.63;4.00;;;;;;;17.03;80.74;101609.81;5073872;28;20441;-71
2021/06/08 04:35:24;;;;;;;4.60;2.90;;;;;;;17.11;81.06;101609.03;5073917;28;20503;-71
2021/06/08 04:37:50;;;;;;;5.30;3.90;;;;;;;17.19;81.68;101616.44;5073885;28;20456;-71
2021/06/08 04:40:17;;;;;;;5.67;2.80;;;;;;;17.23;81.73;101608.41;5073858;28;20818;-71
2021/06/08 04:42:47;;;;;;;4.10;3.17;;;;;;;17.28;82.42;101608.25;5073791;28;20444;-71
2021/06/08 04:45:14;;;;;;;4.53;3.60;;;;;;;17.35;82.58;101612.13;5073717;28;20468;-71
2021/06/08 04:47:40;;;;;;;6.77;3.73;;;;;;;17.43;82.60;101607.75;5073676;28;20438;-71
2021/06/08 04:50:09;;;;;;;4.23;2.80;;;;;;;17.49;81.36;101617.44;5073621;28;20477;-71
2021/06/08 04:52:35;;;;;;;4.17;3.30;;;;;;;17.47;81.42;101616.94;5073631;28;20433;-71
2021/06/08 04:55:01;;;;;;;4.10;2.93;;;;;;;17.54;80.98;101611.78;5073199;28;20461;-71
2021/06/08 04:57:28;;;;;;;4.17;3.60;;;;;;;17.65;81.10;101615.00;5073421;28;20444;-71
2021/06/08 05:00:02;;;;;;;4.57;3.67;;;;;;;17.72;81.11;101626.28;5073236;28;20939;-70
2021/06/08 05:02:35;;;;;;;3.97;3.20;;;;;;;17.81;80.70;101621.63;5073587;28;20436;-72
2021/06/08 05:05:05;;;;;;;4.73;3.83;;;;;;;17.78;79.99;101621.47;5073149;28;20460;-72
2021/06/08 05:07:34;;;;;;;3.73;3.40;;;;;;;17.83;80.70;101626.78;5073117;28;20953;-72
2021/06/08 05:10:03;;;;;;;5.53;4.20;;;;;;;17.90;80.27;101627.09;5073282;28;20484;-72
2021/06/08 05:12:30;;;;;;;4.83;4.17;;;;;;;17.97;79.53;101621.13;5073321;28;20438;-73
2021/06/08 05:15:00;;;;;;;5.17;3.90;;;;;;;18.06;79.07;101628.22;5072956;28;20477;-72
2021/06/08 05:17:27;;;;;;;4.37;3.27;;;;;;;18.15;79.22;101618.03;5073326;28;20448;-74
2021/06/08 05:19:54;;;;;;;6.40;3.80;;;;;;;18.21;79.40;101626.88;5073277;28;20483;-73
2021/06/08 05:22:21;;;;;;;4.80;4.10;;;;;;;18.31;79.42;101621.03;5072958;28;21012;-72
2021/06/08 05:24:49;;;;;;;6.23;3.30;;;;;;;18.35;79.74;101626.66;5073161;28;20502;-73
2021/06/08 05:27:15;;;;;;;4.20;3.03;;;;;;;18.44;80.14;101632.94;5072942;28;20437;-72
2021/06/08 05:29:42;;;;;;;5.60;3.47;;;;;;;18.52;79.76;101625.81;5073111;28;20473;-73
2021/06/08 05:32:11;;;;;;;5.67;3.80;;;;;;;18.61;79.76;101632.06;5079672;28;20954;-73
2021/06/08 05:34:41;;;;;;;4.73;3.40;;;;;;;18.62;80.13;101631.72;5073892;28;20465;-73
2021/06/08 05:37:08;;;;;;;4.97;3.40;;;;;;;18.73;79.77;101631.41;5073351;28;20446;-73
2021/06/08 05:39:38;;;;;;;4.80;3.90;;;;;;;18.81;79.62;101641.50;5073119;28;20433;-72
2021/06/08 05:42:06;;;;;;;4.90;3.33;;;;;;;18.84;79.17;101633.41;5072818;28;20459;-73
2021/06/08 05:44:34;;;;;;;23.23;4.07;;;;;;;18.96;78.76;101638.22;5072649;28;20841;-73
2021/06/08 05:47:00;;;;;;;4.17;3.20;;;;;;;18.98;77.92;101632.38;5062987;28;20466;-73
2021/06/08 05:49:27;;;;;;;5.53;3.80;;;;;;;19.00;77.80;101636.41;5052937;28;20478;-73
2021/06/08 05:51:54;;;;;;;4.40;3.73;;;;;;;19.06;77.66;101640.56;5052607;28;20951;-73
2021/06/08 05:54:22;;;;;;;4.27;3.43;;;;;;;19.13;77.45;101634.56;5052797;28;20512;-73
2021/06/08 05:56:48;;;;;;;4.30;3.60;;;;;;;19.22;78.38;101640.78;5052628;28;21004;-73
2021/06/08 05:59:15;;;;;;;3.80;3.13;;;;;;;19.28;79.21;101642.19;5052868;28;20442;-73
2021/06/08 06:01:44;;;;;;;3.60;2.97;;;;;;;19.37;78.98;101642.94;5052511;28;20453;-71
2021/06/08 06:04:12;;;;;;;6.10;2.90;;;;;;;19.47;78.69;101644.47;5052449;28;20994;-70
2021/06/08 06:06:41;;;;;;;5.20;3.33;;;;;;;19.49;77.87;101644.16;5052857;28;20434;-71
2021/06/08 06:09:07;;;;;;;6.23;4.20;;;;;;;19.53;77.18;101648.66;5052738;28;20488;-74
2021/06/08 06:11:35;;;;;;;4.27;2.87;;;;;;;19.62;76.46;101646.66;5052475;28;20484;-75
2021/06/08 06:14:02;;;;;;;5.30;3.50;;;;;;;19.72;77.25;101644.63;5052415;28;20478;-74
2021/06/08 06:16:30;;;;;;;3.90;3.30;;;;;;;19.81;76.84;101648.09;5052726;28;20450;-75
2021/06/08 06:18:57;;;;;;;5.40;3.67;;;;;;;19.84;75.40;101653.75;5052416;28;20962;-74
2021/06/08 06:21:25;;;;;;;5.97;3.17;;;;;;;19.96;75.00;101647.47;5052323;28;20962;-74
2021/06/08 06:23:53;;;;;;;7.57;3.37;;;;;;;20.06;76.42;101649.81;5052556;28;20458;-72
2021/06/08 06:26:19;;;;;;;5.53;2.70;;;;;;;20.13;75.62;101655.53;5052296;28;20500;-70
2021/06/08 06:28:46;;;;;;;4.70;3.17;;;;;;;20.22;76.04;101662.91;5052525;28;20482;-72
2021/06/08 06:31:27;;;;;;;3.40;2.83;;;;;;;20.26;75.66;101658.34;5029786;28;20526;-72
2021/06/08 06:33:54;;;;;;;3.80;3.13;;;;;;;20.31;74.77;101656.16;5052509;28;20796;-72
2021/06/08 06:36:21;;;;;;;4.27;3.27;;;;;;;20.41;73.85;101664.00;5052253;28;20965;-72
2021/06/08 06:38:50;;;;;;;6.37;3.60;;;;;;;20.49;74.03;101656.78;5056097;28;20441;-72
2021/06/08 06:41:19;;;;;;;5.63;3.57;;;;;;;20.54;73.57;101661.28;5056164;28;20449;-72
2021/06/08 06:43:49;;;;;;;8.67;3.13;;;;;;;20.61;74.56;101664.28;5056052;28;20469;-72
2021/06/08 06:46:16;;;;;;;3.93;3.17;;;;;;;20.65;74.98;101654.97;5056145;28;20426;-71
2021/06/08 06:48:42;;;;;;;4.13;3.63;;;;;;;20.67;74.64;101660.13;5055541;28;20823;-73
2021/06/08 06:51:09;;;;;;;4.83;3.73;;;;;;;20.71;74.78;101658.31;5055857;28;20446;-71
2021/06/08 06:53:35;;;;;;;5.90;2.93;;;;;;;20.76;74.44;101660.03;5055919;28;20473;-73
2021/06/08 06:56:02;;;;;;;4.93;3.70;;;;;;;20.76;73.83;101665.53;5055813;28;20446;-70
2021/06/08 06:58:32;;;;;;;4.33;3.00;;;;;;;20.84;72.98;101664.63;5055506;28;20438;-74
2021/06/08 07:00:58;;;;;;;3.67;3.33;;;;;;;20.92;70.81;101670.00;5055463;28;20962;-72
2021/06/08 07:03:29;;;;;;;5.87;2.97;;;;;;;21.01;70.62;101661.63;5055719;28;20462;-71
2021/06/08 07:05:56;;;;;;;3.77;3.47;;;;;;;21.12;70.68;101657.28;5055583;28;20911;-72
2021/06/08 07:08:24;;;;;;;4.07;3.20;;;;;;;21.23;70.32;101657.59;5055709;28;20442;-72
2021/06/08 07:10:51;;;;;;;6.40;4.00;;;;;;;21.26;69.16;101658.84;5055569;28;20482;-72
2021/06/08 07:13:17;;;;;;;4.83;3.77;;;;;;;21.40;69.40;101662.88;5055188;28;20595;-72
2021/06/08 07:15:46;;;;;;;4.13;3.00;;;;;;;21.46;68.55;101662.63;5055570;28;20433;-71
2021/06/08 07:18:12;;;;;;;4.60;3.37;;;;;;;21.57;67.29;101666.50;5055162;28;20449;-72
2021/06/08 07:20:39;;;;;;;3.67;3.23;;;;;;;21.71;66.55;101666.13;5055511;28;20442;-71
2021/06/08 07:23:07;;;;;;;5.50;3.23;;;;;;;21.77;67.06;101667.47;5054978;28;20958;-72
2021/06/08 07:25:36;;;;;;;4.80;3.70;;;;;;;21.81;66.89;101666.41;5054961;28;20474;-71
2021/06/08 07:28:04;;;;;;;6.40;3.50;;;;;;;21.84;66.17;101662.97;5055128;28;20446;-71
2021/06/08 07:30:30;;;;;;;4.80;3.40;;;;;;;21.90;65.45;101657.97;5060290;28;20537;-72
2021/06/08 07:33:14;;;;;;;4.33;3.20;;;;;;;22.03;67.46;101654.00;5057739;28;20435;-72
2021/06/08 07:35:50;;;;;;;4.17;3.20;;;;;;;22.12;66.00;101648.34;5055364;28;20521;-73
2021/06/08 07:38:20;;;;;;;4.13;3.17;;;;;;;22.23;66.65;101649.47;5055099;28;20977;-70
2021/06/08 07:40:57;;;;;;;3.03;2.40;;;;;;;22.34;64.30;101650.53;5055377;28;20852;-70
2021/06/08 07:43:28;;;;;;;3.00;2.70;;;;;;;22.42;63.32;101652.31;5054695;28;20970;-70
2021/06/08 07:45:55;;;;;;;3.33;2.30;;;;;;;22.46;61.22;101646.88;5054629;28;20981;-70
2021/06/08 07:48:27;;;;;;;3.50;3.07;;;;;;;22.57;60.18;101647.13;5053616;28;20942;-72
2021/06/08 07:50:56;;;;;;;3.60;2.67;;;;;;;22.66;60.24;101656.84;5054872;28;20523;-69
2021/06/08 07:53:23;;;;;;;3.47;2.50;;;;;;;22.78;60.44;101649.63;5055003;28;20550;-70
2021/06/08 07:55:59;;;;;;;3.20;2.73;;;;;;;22.87;58.64;101648.28;5054954;28;20451;-71
2021/06/08 07:58:26;;;;;;;3.70;2.87;;;;;;;22.94;60.07;101649.66;5054510;28;20939;-71
2021/06/08 08:00:53;;;;;;;2.87;2.53;;;;;;;23.07;56.58;101643.66;5054863;28;20806;-70
2021/06/08 08:03:26;;;;;;;4.27;2.27;;;;;;;23.13;56.06;101655.22;5054505;28;20458;-71
2021/06/08 08:05:57;;;;;;;4.10;2.90;;;;;;;23.13;56.39;101658.78;5054534;28;20430;-70
2021/06/08 08:08:23;;;;;;;2.90;2.23;;;;;;;23.26;53.17;101655.91;5066519;28;20457;-71
2021/06/08 08:10:50;;;;;;;2.50;2.30;;;;;;;23.28;54.44;101659.88;5073903;28;20534;-70
2021/06/08 08:13:21;;;;;;;3.03;2.73;;;;;;;23.40;51.31;101657.00;5073890;28;20481;-70
2021/06/08 08:15:48;;;;;;;2.43;2.23;;;;;;;23.34;52.19;101658.47;5074344;28;20469;-70
2021/06/08 08:18:14;;;;;;;3.90;2.40;;;;;;;23.46;49.88;101656.69;5074344;28;20787;-70
2021/06/08 08:20:46;;;;;;;3.20;2.03;;;;;;;23.52;50.64;101660.81;5074203;28;20491;-70
2021/06/08 08:23:13;;;;;;;2.73;2.30;;;;;;;23.53;50.18;101662.41;5059884;28;20904;-70
2021/06/08 08:25:40;;;;;;;6.40;2.27;;;;;;;23.67;48.24;101659.94;5073775;28;20930;-70
2021/06/08 08:28:06;;;;;;;3.27;2.87;;;;;;;23.76;48.20;101660.53;5074296;28;20433;-71
2021/06/08 08:30:33;;;;;;;1.93;1.83;;;;;;;23.77;46.26;101661.31;5073690;28;20481;-71
2021/06/08 08:32:59;;;;;;;1.83;1.73;;;;;;;23.82;47.67;101659.09;5073858;28;20441;-71
2021/06/08 08:35:26;;;;;;;1.97;1.77;;;;;;;23.94;48.22;101652.56;5074810;28;20440;-71
2021/06/08 08:37:52;;;;;;;2.63;2.13;;;;;;;24.06;48.37;101655.19;5074381;28;20934;-71
2021/06/08 08:40:20;;;;;;;3.33;2.27;;;;;;;24.08;46.59;101657.56;5074540;28;20442;-71
2021/06/08 08:42:46;;;;;;;2.50;2.30;;;;;;;24.13;47.49;101655.31;5073777;28;20452;-71
2021/06/08 08:45:13;;;;;;;3.20;1.90;;;;;;;24.19;45.11;101658.59;5073410;28;20457;-70
2021/06/08 08:47:39;;;;;;;2.40;2.20;;;;;;;24.25;46.07;101654.34;5073728;28;20437;-70
2021/06/08 08:50:06;;;;;;;2.40;2.20;;;;;;;24.32;47.19;101654.47;5073862;28;20485;-70
2021/06/08 08:52:32;;;;;;;2.47;1.83;;;;;;;24.37;48.60;101656.16;5073855;28;20491;-71
2021/06/08 08:54:59;;;;;;;4.00;2.53;;;;;;;24.34;47.08;101649.34;5073240;28;20888;-70
2021/06/08 08:57:27;;;;;;;4.73;2.30;;;;;;;24.39;47.21;101651.88;5073343;28;20938;-71
2021/06/08 08:59:58;;;;;;;3.70;2.37;;;;;;;24.47;47.39;101649.19;5072997;28;20487;-70
2021/06/08 09:02:25;;;;;;;2.50;2.30;;;;;;;24.51;48.23;101653.63;5073667;28;20567;-71
2021/06/08 09:04:52;;;;;;;2.77;2.30;;;;;;;24.61;45.24;101646.66;5073286;28;20461;-70
2021/06/08 09:07:18;;;;;;;2.37;2.17;;;;;;;24.64;45.18;101643.16;5073407;28;20472;-71
2021/06/08 09:09:45;;;;;;;2.47;2.20;;;;;;;24.74;46.71;101648.06;5074027;28;20485;-71
2021/06/08 09:12:12;;;;;;;2.23;2.03;;;;;;;24.86;46.99;101649.84;5074099;28;20532;-70
2021/06/08 09:14:39;;;;;;;4.30;2.67;;;;;;;24.90;46.37;101645.94;5072969;28;20477;-70
2021/06/08 09:17:06;;;;;;;2.53;1.90;;;;;;;24.98;45.97;101646.84;5073335;28;20524;-71
2021/06/08 09:19:34;;;;;;;2.80;2.53;;;;;;;25.03;46.15;101649.31;5073394;28;20483;-70
2021/06/08 09:22:00;;;;;;;2.80;2.27;;;;;;;25.14;47.46;101649.47;5073242;28;20448;-70
2021/06/08 09:24:28;;;;;;;3.20;2.20;;;;;;;25.21;47.02;101646.81;5073004;28;20461;-70
2021/06/08 09:26:56;;;;;;;3.60;2.93;;;;;;;25.27;46.64;101642.53;5072807;28;20931;-70
2021/06/08 09:29:32;;;;;;;3.73;2.73;;;;;;;25.26;45.48;101640.94;5073230;28;21024;-70
2021/06/08 09:32:13;;;;;;;2.30;2.00;;;;;;;25.29;45.23;101642.16;5078478;28;20422;-71
2021/06/08 09:34:43;;;;;;;2.73;2.53;;;;;;;25.34;45.88;101645.41;5073059;28;20484;-71
2021/06/08 09:37:09;;;;;;;3.50;2.70;;;;;;;25.37;45.30;101641.88;5073343;28;20445;-69
2021/06/08 09:39:35;;;;;;;2.97;2.40;;;;;;;25.47;46.18;101648.75;5072656;28;20786;-71
2021/06/08 09:42:20;;;;;;;3.47;2.73;;;;;;;25.48;46.11;101649.53;5072681;28;20942;-70
2021/06/08 09:44:46;;;;;;;2.20;2.00;;;;;;;25.59;46.79;101644.94;5066412;28;20469;-71
2021/06/08 09:47:25;;;;;;;2.73;2.30;;;;;;;25.63;45.57;101643.78;5053124;28;20449;-71
2021/06/08 09:49:51;;;;;;;3.10;2.50;;;;;;;25.68;46.86;101642.66;5063289;28;20473;-71
2021/06/08 09:52:19;;;;;;;3.77;2.80;;;;;;;25.71;44.21;101649.41;5073030;28;20445;-71
2021/06/08 09:54:46;;;;;;;2.37;2.17;;;;;;;25.86;46.47;101638.13;5072908;28;20461;-71
2021/06/08 09:57:15;;;;;;;2.00;1.73;;;;;;;25.89;49.90;101629.03;5073268;28;20433;-71
2021/06/08 09:59:45;;;;;;;2.63;2.20;;;;;;;25.86;49.85;101638.13;5073153;28;20434;-71
2021/06/08 10:02:24;;;;;;;3.47;3.00;;;;;;;25.88;53.30;101632.97;5073036;28;20421;-70
2021/06/08 10:04:50;;;;;;;3.37;3.00;;;;;;;25.64;51.29;101636.25;5072859;28;20472;-70
2021/06/08 10:07:30;;;;;;;4.50;3.10;;;;;;;25.47;51.07;101631.28;5072925;28;20441;-69
2021/06/08 10:10:04;;;;;;;2.90;2.50;;;;;;;25.45;49.01;101633.63;5072703;28;20481;-69
2021/06/08 10:12:30;;;;;;;2.63;2.20;;;;;;;25.59;49.61;101644.94;5073912;28;20513;-69
2021/06/08 10:15:05;;;;;;;3.77;2.80;;;;;;;25.70;50.63;101636.72;5076281;28;20531;-71
2021/06/08 10:17:33;;;;;;;3.50;2.87;;;;;;;25.86;49.98;101649.25;5076496;28;20929;-70
2021/06/08 10:20:20;;;;;;;2.87;2.67;;;;;;;26.04;47.97;101638.31;5076680;28;20433;-70
2021/06/08 10:22:46;;;;;;;2.83;2.30;;;;;;;26.21;47.96;101645.22;5076738;28;20421;-70
2021/06/08 10:25:13;;;;;;;2.90;2.63;;;;;;;26.36;49.87;101635.84;5076620;28;20461;-70
2021/06/08 10:27:39;;;;;;;2.90;2.60;;;;;;;26.61;51.06;101632.50;5076360;28;20799;-70
2021/06/08 10:30:08;;;;;;;4.47;3.03;;;;;;;26.65;48.81;101636.91;5076288;28;20540;-70
2021/06/08 10:32:35;;;;;;;3.87;3.17;;;;;;;26.88;47.63;101633.88;5076334;28;20480;-69
2021/06/08 10:35:02;;;;;;;4.90;3.00;;;;;;;26.98;48.63;101640.69;5076058;28;20917;-68
2021/06/08 10:37:28;;;;;;;3.47;2.97;;;;;;;27.16;46.49;101644.41;5076306;28;20437;-71
2021/06/08 10:39:57;;;;;;;2.50;2.07;;;;;;;27.22;45.07;101636.47;5076073;28;20449;-70
2021/06/08 10:42:23;;;;;;;1.90;1.80;;;;;;;27.31;45.27;101638.91;5075987;28;20925;-70
2021/06/08 10:44:49;;;;;;;2.90;2.43;;;;;;;27.32;45.18;101637.75;5076090;28;20569;-71
2021/06/08 10:47:21;;;;;;;3.70;2.63;;;;;;;27.25;43.69;101638.47;5076530;28;20444;-70
2021/06/08 10:49:49;;;;;;;4.00;2.60;;;;;;;27.44;44.07;101631.81;5076726;28;20469;-69
2021/06/08 10:52:17;;;;;;;3.83;3.20;;;;;;;27.50;43.34;101626.69;5076382;28;20440;-70
2021/06/08 10:54:44;;;;;;;2.10;1.90;;;;;;;27.70;43.67;101627.91;5076207;28;20507;-73
2021/06/08 10:57:14;;;;;;;3.90;2.27;;;;;;;27.99;44.41;101628.03;5075839;28;20498;-71
2021/06/08 10:59:42;;;;;;;2.83;2.60;;;;;;;28.15;43.35;101634.81;5075976;28;20527;-71
2021/06/08 11:02:09;;;;;;;3.10;2.57;;;;;;;28.41;43.84;101624.50;5075160;28;20449;-71
2021/06/08 11:04:51;;;;;;;3.20;2.40;;;;;;;28.63;43.32;101636.44;5075151;28;20461;-69
2021/06/08 11:07:50;;;;;;;3.97;2.53;;;;;;;28.51;44.23;101631.25;5074967;28;20436;-71
2021/06/08 11:10:58;;;;;;;3.23;2.77;;;;;;;28.13;42.66;101641.97;5074955;28;20518;-71
2021/06/08 11:13:56;;;;;;;2.30;2.10;;;;;;;27.69;42.65;101637.47;5044582;28;20500;-71
2021/06/08 11:16:31;;;;;;;2.97;2.70;;;;;;;28.01;42.36;101640.34;5074994;28;20460;-69
2021/06/08 11:18:58;;;;;;;2.40;2.20;;;;;;;28.72;42.18;101633.25;5074791;28;20441;-69
2021/06/08 11:21:27;;;;;;;2.63;2.13;;;;;;;29.71;42.02;101639.78;5074888;28;20555;-70
2021/06/08 11:23:55;;;;;;;3.43;2.47;;;;;;;30.74;42.71;101635.44;5074577;28;20453;-70
2021/06/08 11:26:49;;;;;;;3.53;2.30;;;;;;;31.34;38.92;101643.22;5074586;28;20456;-69
2021/06/08 11:29:46;;;;;;;2.30;2.10;;;;;;;31.16;40.65;101634.97;5074358;28;20446;-69
2021/06/08 11:32:45;;;;;;;2.17;1.97;;;;;;;30.40;40.74;101644.50;5076577;28;20426;-70